<?xml version="1.0" encoding="UTF-8" standalone="no" ?>
<gpx xmlns="http://www.topografix.com/GPX/1/1" xmlns:xsi="http://www.w3.org/2001/XMLSchema-instance" xsi:schemaLocation="http://www.topografix.com/GPX/1/1 http://www.topografix.com/GPX/1/1/gpx.xsd" version="1.1" creator="VisuGPX - https://www.visugpx.com">
  <metadata>
    <name>Baragem 1</name>
    <desc><![CDATA[Parcours entrainement course à pied Baragem da Bravura sur piste en terre]]></desc>
  </metadata>
  <trk>
    <name><![CDATA[Baragem 1]]></name>
    <trkseg>
      <trkpt lat="37.20057" lon="-8.699">
        <ele>113.09228515625</ele>
        <time>2019-01-09T11:43:23Z</time>
      </trkpt>
      <trkpt lat="37.20023" lon="-8.69852">
        <ele>109.72766113281</ele>
        <time>2019-01-09T11:43:02Z</time>
      </trkpt>
      <trkpt lat="37.20003" lon="-8.69814">
        <ele>107.80505371094</ele>
        <time>2019-01-09T11:42:46Z</time>
      </trkpt>
      <trkpt lat="37.20004" lon="-8.69809">
        <ele>107.32434082031</ele>
        <time>2019-01-09T11:42:44Z</time>
      </trkpt>
      <trkpt lat="37.20021" lon="-8.69782">
        <ele>105.40173339844</ele>
        <time>2019-01-09T11:42:31Z</time>
      </trkpt>
      <trkpt lat="37.20046" lon="-8.69793">
        <ele>102.037109375</ele>
        <time>2019-01-09T11:42:17Z</time>
      </trkpt>
      <trkpt lat="37.2007" lon="-8.69812">
        <ele>98.672485351562</ele>
        <time>2019-01-09T11:42:03Z</time>
      </trkpt>
      <trkpt lat="37.20085" lon="-8.69824">
        <ele>96.749877929688</ele>
        <time>2019-01-09T11:41:55Z</time>
      </trkpt>
      <trkpt lat="37.20104" lon="-8.69839">
        <ele>93.385131835938</ele>
        <time>2019-01-09T11:41:45Z</time>
      </trkpt>
      <trkpt lat="37.20118" lon="-8.69851">
        <ele>90.501342773438</ele>
        <time>2019-01-09T11:41:37Z</time>
      </trkpt>
      <trkpt lat="37.20128" lon="-8.6986">
        <ele>88.578735351562</ele>
        <time>2019-01-09T11:41:31Z</time>
      </trkpt>
      <trkpt lat="37.2013" lon="-8.69862">
        <ele>88.578735351562</ele>
        <time>2019-01-09T11:40:54Z</time>
      </trkpt>
      <trkpt lat="37.20156" lon="-8.69871">
        <ele>88.578735351562</ele>
        <time>2019-01-09T11:40:43Z</time>
      </trkpt>
      <trkpt lat="37.20162" lon="-8.69869">
        <ele>87.6171875</ele>
        <time>2019-01-09T11:40:41Z</time>
      </trkpt>
      <trkpt lat="37.20209" lon="-8.69837">
        <ele>88.098022460938</ele>
        <time>2019-01-09T11:40:27Z</time>
      </trkpt>
      <trkpt lat="37.20212" lon="-8.69762">
        <ele>88.098022460938</ele>
        <time>2019-01-09T11:40:12Z</time>
      </trkpt>
      <trkpt lat="37.20217" lon="-8.69757">
        <ele>88.098022460938</ele>
        <time>2019-01-09T11:40:07Z</time>
      </trkpt>
      <trkpt lat="37.20245" lon="-8.69787">
        <ele>89.539916992188</ele>
        <time>2019-01-09T11:39:55Z</time>
      </trkpt>
      <trkpt lat="37.20293" lon="-8.69822">
        <ele>89.059326171875</ele>
        <time>2019-01-09T11:39:40Z</time>
      </trkpt>
      <trkpt lat="37.20323" lon="-8.69832">
        <ele>89.539916992188</ele>
        <time>2019-01-09T11:39:30Z</time>
      </trkpt>
      <trkpt lat="37.20336" lon="-8.69794">
        <ele>89.059326171875</ele>
        <time>2019-01-09T11:39:18Z</time>
      </trkpt>
      <trkpt lat="37.2034" lon="-8.69734">
        <ele>89.059326171875</ele>
        <time>2019-01-09T11:39:05Z</time>
      </trkpt>
      <trkpt lat="37.20305" lon="-8.69682">
        <ele>87.6171875</ele>
        <time>2019-01-09T11:38:49Z</time>
      </trkpt>
      <trkpt lat="37.20299" lon="-8.6967">
        <ele>87.6171875</ele>
        <time>2019-01-09T11:38:46Z</time>
      </trkpt>
      <trkpt lat="37.20321" lon="-8.69646">
        <ele>87.136596679688</ele>
        <time>2019-01-09T11:38:39Z</time>
      </trkpt>
      <trkpt lat="37.20342" lon="-8.69627">
        <ele>86.17529296875</ele>
        <time>2019-01-09T11:38:30Z</time>
      </trkpt>
      <trkpt lat="37.20353" lon="-8.69615">
        <ele>84.7333984375</ele>
        <time>2019-01-09T11:38:26Z</time>
      </trkpt>
      <trkpt lat="37.2036" lon="-8.69608">
        <ele>84.252685546875</ele>
        <time>2019-01-09T11:38:24Z</time>
      </trkpt>
      <trkpt lat="37.20374" lon="-8.6959">
        <ele>86.17529296875</ele>
        <time>2019-01-09T11:38:20Z</time>
      </trkpt>
      <trkpt lat="37.20389" lon="-8.69586">
        <ele>86.17529296875</ele>
        <time>2019-01-09T11:38:16Z</time>
      </trkpt>
      <trkpt lat="37.20398" lon="-8.69583">
        <ele>85.694580078125</ele>
        <time>2019-01-09T11:38:14Z</time>
      </trkpt>
      <trkpt lat="37.20412" lon="-8.69569">
        <ele>85.694580078125</ele>
        <time>2019-01-09T11:38:10Z</time>
      </trkpt>
      <trkpt lat="37.20435" lon="-8.69543">
        <ele>85.694580078125</ele>
        <time>2019-01-09T11:38:03Z</time>
      </trkpt>
      <trkpt lat="37.20457" lon="-8.69535">
        <ele>87.136596679688</ele>
        <time>2019-01-09T11:37:58Z</time>
      </trkpt>
      <trkpt lat="37.20498" lon="-8.69546">
        <ele>89.059326171875</ele>
        <time>2019-01-09T11:37:52Z</time>
      </trkpt>
      <trkpt lat="37.2051" lon="-8.69549">
        <ele>90.501342773438</ele>
        <time>2019-01-09T11:37:50Z</time>
      </trkpt>
      <trkpt lat="37.20522" lon="-8.69553">
        <ele>91.462524414062</ele>
        <time>2019-01-09T11:37:47Z</time>
      </trkpt>
      <trkpt lat="37.20568" lon="-8.69587">
        <ele>90.98193359375</ele>
        <time>2019-01-09T11:37:32Z</time>
      </trkpt>
      <trkpt lat="37.2063" lon="-8.69594">
        <ele>89.539916992188</ele>
        <time>2019-01-09T11:37:14Z</time>
      </trkpt>
      <trkpt lat="37.20685" lon="-8.69579">
        <ele>87.136596679688</ele>
        <time>2019-01-09T11:36:59Z</time>
      </trkpt>
      <trkpt lat="37.20735" lon="-8.69565">
        <ele>88.098022460938</ele>
        <time>2019-01-09T11:36:46Z</time>
      </trkpt>
      <trkpt lat="37.20776" lon="-8.69559">
        <ele>88.098022460938</ele>
        <time>2019-01-09T11:36:34Z</time>
      </trkpt>
      <trkpt lat="37.20818" lon="-8.69523">
        <ele>86.17529296875</ele>
        <time>2019-01-09T11:36:20Z</time>
      </trkpt>
      <trkpt lat="37.20873" lon="-8.69512">
        <ele>85.213989257812</ele>
        <time>2019-01-09T11:36:05Z</time>
      </trkpt>
      <trkpt lat="37.20884" lon="-8.69506">
        <ele>85.213989257812</ele>
        <time>2019-01-09T11:36:02Z</time>
      </trkpt>
      <trkpt lat="37.20908" lon="-8.6948">
        <ele>85.694580078125</ele>
        <time>2019-01-09T11:35:54Z</time>
      </trkpt>
      <trkpt lat="37.20922" lon="-8.69455">
        <ele>85.694580078125</ele>
        <time>2019-01-09T11:35:48Z</time>
      </trkpt>
      <trkpt lat="37.20918" lon="-8.694">
        <ele>85.694580078125</ele>
        <time>2019-01-09T11:35:37Z</time>
      </trkpt>
      <trkpt lat="37.20944" lon="-8.69403">
        <ele>86.17529296875</ele>
        <time>2019-01-09T11:35:33Z</time>
      </trkpt>
      <trkpt lat="37.20965" lon="-8.69417">
        <ele>87.136596679688</ele>
        <time>2019-01-09T11:35:25Z</time>
      </trkpt>
      <trkpt lat="37.20973" lon="-8.69431">
        <ele>86.656005859375</ele>
        <time>2019-01-09T11:35:21Z</time>
      </trkpt>
      <trkpt lat="37.20963" lon="-8.69457">
        <ele>86.656005859375</ele>
        <time>2019-01-09T11:35:15Z</time>
      </trkpt>
      <trkpt lat="37.20952" lon="-8.695">
        <ele>85.694580078125</ele>
        <time>2019-01-09T11:35:05Z</time>
      </trkpt>
      <trkpt lat="37.20955" lon="-8.69508">
        <ele>86.656005859375</ele>
        <time>2019-01-09T11:35:03Z</time>
      </trkpt>
      <trkpt lat="37.20996" lon="-8.69538">
        <ele>86.17529296875</ele>
        <time>2019-01-09T11:34:48Z</time>
      </trkpt>
      <trkpt lat="37.21062" lon="-8.69549">
        <ele>86.656005859375</ele>
        <time>2019-01-09T11:34:31Z</time>
      </trkpt>
      <trkpt lat="37.21069" lon="-8.69559">
        <ele>87.6171875</ele>
        <time>2019-01-09T11:34:25Z</time>
      </trkpt>
      <trkpt lat="37.21049" lon="-8.69576">
        <ele>90.020629882812</ele>
        <time>2019-01-09T11:34:19Z</time>
      </trkpt>
      <trkpt lat="37.21036" lon="-8.69585">
        <ele>91.943237304688</ele>
        <time>2019-01-09T11:34:16Z</time>
      </trkpt>
      <trkpt lat="37.21012" lon="-8.69604">
        <ele>93.385131835938</ele>
        <time>2019-01-09T11:34:10Z</time>
      </trkpt>
      <trkpt lat="37.20996" lon="-8.69623">
        <ele>94.8271484375</ele>
        <time>2019-01-09T11:34:05Z</time>
      </trkpt>
      <trkpt lat="37.20988" lon="-8.69632">
        <ele>95.788452148438</ele>
        <time>2019-01-09T11:34:02Z</time>
      </trkpt>
      <trkpt lat="37.20981" lon="-8.6967">
        <ele>93.865844726562</ele>
        <time>2019-01-09T11:33:47Z</time>
      </trkpt>
      <trkpt lat="37.20982" lon="-8.69686">
        <ele>93.865844726562</ele>
        <time>2019-01-09T11:33:41Z</time>
      </trkpt>
      <trkpt lat="37.2098" lon="-8.69687">
        <ele>93.385131835938</ele>
        <time>2019-01-09T11:33:40Z</time>
      </trkpt>
      <trkpt lat="37.20944" lon="-8.69672">
        <ele>91.462524414062</ele>
        <time>2019-01-09T11:33:23Z</time>
      </trkpt>
      <trkpt lat="37.20909" lon="-8.69629">
        <ele>90.98193359375</ele>
        <time>2019-01-09T11:33:06Z</time>
      </trkpt>
      <trkpt lat="37.20882" lon="-8.69609">
        <ele>90.501342773438</ele>
        <time>2019-01-09T11:32:56Z</time>
      </trkpt>
      <trkpt lat="37.20851" lon="-8.69625">
        <ele>92.423950195312</ele>
        <time>2019-01-09T11:32:46Z</time>
      </trkpt>
      <trkpt lat="37.20812" lon="-8.69649">
        <ele>94.8271484375</ele>
        <time>2019-01-09T11:32:32Z</time>
      </trkpt>
      <trkpt lat="37.20813" lon="-8.69673">
        <ele>95.307739257812</ele>
        <time>2019-01-09T11:32:27Z</time>
      </trkpt>
      <trkpt lat="37.20802" lon="-8.69703">
        <ele>97.23046875</ele>
        <time>2019-01-09T11:32:19Z</time>
      </trkpt>
      <trkpt lat="37.20795" lon="-8.69706">
        <ele>96.269287109375</ele>
        <time>2019-01-09T11:32:17Z</time>
      </trkpt>
      <trkpt lat="37.20552" lon="-8.69882">
        <ele>98.19189453125</ele>
        <time>2019-01-09T11:30:30Z</time>
      </trkpt>
      <trkpt lat="37.208" lon="-8.70115">
        <ele>97.23046875</ele>
        <time>2019-01-09T11:29:01Z</time>
      </trkpt>
      <trkpt lat="37.20822" lon="-8.70128">
        <ele>96.749877929688</ele>
        <time>2019-01-09T11:28:55Z</time>
      </trkpt>
      <trkpt lat="37.20838" lon="-8.70128">
        <ele>97.711181640625</ele>
        <time>2019-01-09T11:28:51Z</time>
      </trkpt>
      <trkpt lat="37.20885" lon="-8.70132">
        <ele>97.711181640625</ele>
        <time>2019-01-09T11:28:38Z</time>
      </trkpt>
      <trkpt lat="37.20912" lon="-8.70147">
        <ele>97.23046875</ele>
        <time>2019-01-09T11:28:31Z</time>
      </trkpt>
      <trkpt lat="37.20939" lon="-8.70144">
        <ele>97.23046875</ele>
        <time>2019-01-09T11:28:24Z</time>
      </trkpt>
      <trkpt lat="37.20948" lon="-8.70143">
        <ele>97.23046875</ele>
        <time>2019-01-09T11:28:22Z</time>
      </trkpt>
      <trkpt lat="37.20964" lon="-8.70101">
        <ele>97.711181640625</ele>
        <time>2019-01-09T11:28:13Z</time>
      </trkpt>
      <trkpt lat="37.20963" lon="-8.70082">
        <ele>98.672485351562</ele>
        <time>2019-01-09T11:28:10Z</time>
      </trkpt>
      <trkpt lat="37.20962" lon="-8.70077">
        <ele>98.672485351562</ele>
        <time>2019-01-09T11:28:09Z</time>
      </trkpt>
      <trkpt lat="37.20971" lon="-8.7005">
        <ele>100.11450195312</ele>
        <time>2019-01-09T11:28:01Z</time>
      </trkpt>
      <trkpt lat="37.21012" lon="-8.70095">
        <ele>98.19189453125</ele>
        <time>2019-01-09T11:27:46Z</time>
      </trkpt>
      <trkpt lat="37.21015" lon="-8.70098">
        <ele>98.19189453125</ele>
        <time>2019-01-09T11:27:45Z</time>
      </trkpt>
      <trkpt lat="37.21046" lon="-8.70096">
        <ele>98.19189453125</ele>
        <time>2019-01-09T11:27:37Z</time>
      </trkpt>
      <trkpt lat="37.21061" lon="-8.70069">
        <ele>100.59509277344</ele>
        <time>2019-01-09T11:27:32Z</time>
      </trkpt>
      <trkpt lat="37.2106" lon="-8.7004">
        <ele>101.07568359375</ele>
        <time>2019-01-09T11:27:26Z</time>
      </trkpt>
      <trkpt lat="37.21089" lon="-8.70029">
        <ele>99.153076171875</ele>
        <time>2019-01-09T11:27:14Z</time>
      </trkpt>
      <trkpt lat="37.21092" lon="-8.70028">
        <ele>97.23046875</ele>
        <time>2019-01-09T11:27:10Z</time>
      </trkpt>
      <trkpt lat="37.21101" lon="-8.70017">
        <ele>97.711181640625</ele>
        <time>2019-01-09T11:27:06Z</time>
      </trkpt>
      <trkpt lat="37.21129" lon="-8.69999">
        <ele>97.23046875</ele>
        <time>2019-01-09T11:26:57Z</time>
      </trkpt>
      <trkpt lat="37.21158" lon="-8.69989">
        <ele>97.23046875</ele>
        <time>2019-01-09T11:26:45Z</time>
      </trkpt>
      <trkpt lat="37.21211" lon="-8.69943">
        <ele>96.749877929688</ele>
        <time>2019-01-09T11:26:25Z</time>
      </trkpt>
      <trkpt lat="37.21213" lon="-8.69926">
        <ele>97.711181640625</ele>
        <time>2019-01-09T11:26:20Z</time>
      </trkpt>
      <trkpt lat="37.21213" lon="-8.69891">
        <ele>99.153076171875</ele>
        <time>2019-01-09T11:26:09Z</time>
      </trkpt>
      <trkpt lat="37.21213" lon="-8.69883">
        <ele>98.672485351562</ele>
        <time>2019-01-09T11:26:04Z</time>
      </trkpt>
      <trkpt lat="37.21237" lon="-8.69898">
        <ele>97.711181640625</ele>
        <time>2019-01-09T11:25:53Z</time>
      </trkpt>
      <trkpt lat="37.21239" lon="-8.699">
        <ele>97.23046875</ele>
        <time>2019-01-09T11:25:52Z</time>
      </trkpt>
      <trkpt lat="37.21264" lon="-8.69881">
        <ele>96.749877929688</ele>
        <time>2019-01-09T11:25:42Z</time>
      </trkpt>
      <trkpt lat="37.21314" lon="-8.69867">
        <ele>96.269287109375</ele>
        <time>2019-01-09T11:25:27Z</time>
      </trkpt>
      <trkpt lat="37.21316" lon="-8.69863">
        <ele>95.788452148438</ele>
        <time>2019-01-09T11:25:26Z</time>
      </trkpt>
      <trkpt lat="37.21328" lon="-8.69839">
        <ele>98.19189453125</ele>
        <time>2019-01-09T11:25:18Z</time>
      </trkpt>
      <trkpt lat="37.21364" lon="-8.69847">
        <ele>96.749877929688</ele>
        <time>2019-01-09T11:25:04Z</time>
      </trkpt>
      <trkpt lat="37.21373" lon="-8.6986">
        <ele>96.749877929688</ele>
        <time>2019-01-09T11:24:58Z</time>
      </trkpt>
      <trkpt lat="37.21343" lon="-8.69901">
        <ele>97.711181640625</ele>
        <time>2019-01-09T11:24:49Z</time>
      </trkpt>
      <trkpt lat="37.21341" lon="-8.69906">
        <ele>98.19189453125</ele>
        <time>2019-01-09T11:24:48Z</time>
      </trkpt>
      <trkpt lat="37.21334" lon="-8.69933">
        <ele>100.59509277344</ele>
        <time>2019-01-09T11:24:43Z</time>
      </trkpt>
      <trkpt lat="37.21338" lon="-8.69943">
        <ele>102.51770019531</ele>
        <time>2019-01-09T11:24:37Z</time>
      </trkpt>
      <trkpt lat="37.21346" lon="-8.69941">
        <ele>102.99829101562</ele>
        <time>2019-01-09T11:24:35Z</time>
      </trkpt>
      <trkpt lat="37.21377" lon="-8.69914">
        <ele>106.84362792969</ele>
        <time>2019-01-09T11:24:28Z</time>
      </trkpt>
      <trkpt lat="37.21404" lon="-8.69889">
        <ele>110.68884277344</ele>
        <time>2019-01-09T11:24:21Z</time>
      </trkpt>
      <trkpt lat="37.2141" lon="-8.6988">
        <ele>111.65026855469</ele>
        <time>2019-01-09T11:24:19Z</time>
      </trkpt>
      <trkpt lat="37.21415" lon="-8.69871">
        <ele>112.61157226562</ele>
        <time>2019-01-09T11:24:17Z</time>
      </trkpt>
      <trkpt lat="37.21422" lon="-8.69857">
        <ele>114.05358886719</ele>
        <time>2019-01-09T11:24:14Z</time>
      </trkpt>
      <trkpt lat="37.21444" lon="-8.69831">
        <ele>117.41821289062</ele>
        <time>2019-01-09T11:24:08Z</time>
      </trkpt>
      <trkpt lat="37.21467" lon="-8.69787">
        <ele>118.37939453125</ele>
        <time>2019-01-09T11:23:58Z</time>
      </trkpt>
      <trkpt lat="37.21507" lon="-8.69717">
        <ele>120.30212402344</ele>
        <time>2019-01-09T11:23:45Z</time>
      </trkpt>
      <trkpt lat="37.21511" lon="-8.69704">
        <ele>120.78283691406</ele>
        <time>2019-01-09T11:23:43Z</time>
      </trkpt>
      <trkpt lat="37.21519" lon="-8.69683">
        <ele>121.744140625</ele>
        <time>2019-01-09T11:23:39Z</time>
      </trkpt>
      <trkpt lat="37.21521" lon="-8.69679">
        <ele>122.70544433594</ele>
        <time>2019-01-09T11:23:38Z</time>
      </trkpt>
      <trkpt lat="37.21533" lon="-8.69665">
        <ele>125.58935546875</ele>
        <time>2019-01-09T11:23:33Z</time>
      </trkpt>
      <trkpt lat="37.2154" lon="-8.69664">
        <ele>127.03137207031</ele>
        <time>2019-01-09T11:23:31Z</time>
      </trkpt>
      <trkpt lat="37.21568" lon="-8.69645">
        <ele>129.91528320312</ele>
        <time>2019-01-09T11:23:21Z</time>
      </trkpt>
      <trkpt lat="37.21569" lon="-8.69634">
        <ele>131.837890625</ele>
        <time>2019-01-09T11:23:18Z</time>
      </trkpt>
      <trkpt lat="37.21568" lon="-8.69631">
        <ele>131.837890625</ele>
        <time>2019-01-09T11:23:17Z</time>
      </trkpt>
      <trkpt lat="37.2156" lon="-8.69612">
        <ele>135.68310546875</ele>
        <time>2019-01-09T11:23:12Z</time>
      </trkpt>
      <trkpt lat="37.21547" lon="-8.69599">
        <ele>138.56726074219</ele>
        <time>2019-01-09T11:23:07Z</time>
      </trkpt>
      <trkpt lat="37.21537" lon="-8.69579">
        <ele>140.97045898438</ele>
        <time>2019-01-09T11:23:02Z</time>
      </trkpt>
      <trkpt lat="37.21522" lon="-8.69539">
        <ele>144.81579589844</ele>
        <time>2019-01-09T11:22:53Z</time>
      </trkpt>
      <trkpt lat="37.2152" lon="-8.69534">
        <ele>145.29638671875</ele>
        <time>2019-01-09T11:22:52Z</time>
      </trkpt>
      <trkpt lat="37.21518" lon="-8.69524">
        <ele>146.73840332031</ele>
        <time>2019-01-09T11:22:50Z</time>
      </trkpt>
      <trkpt lat="37.2151" lon="-8.69499">
        <ele>149.62231445312</ele>
        <time>2019-01-09T11:22:44Z</time>
      </trkpt>
      <trkpt lat="37.215" lon="-8.69479">
        <ele>152.50634765625</ele>
        <time>2019-01-09T11:22:39Z</time>
      </trkpt>
      <trkpt lat="37.21491" lon="-8.69464">
        <ele>154.90954589844</ele>
        <time>2019-01-09T11:22:35Z</time>
      </trkpt>
      <trkpt lat="37.21488" lon="-8.69461">
        <ele>154.90954589844</ele>
        <time>2019-01-09T11:22:34Z</time>
      </trkpt>
      <trkpt lat="37.21454" lon="-8.69434">
        <ele>156.3515625</ele>
        <time>2019-01-09T11:22:20Z</time>
      </trkpt>
      <trkpt lat="37.21417" lon="-8.69434">
        <ele>154.90954589844</ele>
        <time>2019-01-09T11:22:06Z</time>
      </trkpt>
      <trkpt lat="37.2137" lon="-8.69448">
        <ele>157.31286621094</ele>
        <time>2019-01-09T11:21:55Z</time>
      </trkpt>
      <trkpt lat="37.21346" lon="-8.69445">
        <ele>154.90954589844</ele>
        <time>2019-01-09T11:21:43Z</time>
      </trkpt>
      <trkpt lat="37.21324" lon="-8.69414">
        <ele>153.94836425781</ele>
        <time>2019-01-09T11:21:32Z</time>
      </trkpt>
      <trkpt lat="37.21298" lon="-8.69376">
        <ele>152.02575683594</ele>
        <time>2019-01-09T11:21:14Z</time>
      </trkpt>
      <trkpt lat="37.21269" lon="-8.69345">
        <ele>152.50634765625</ele>
        <time>2019-01-09T11:21:00Z</time>
      </trkpt>
      <trkpt lat="37.21236" lon="-8.69346">
        <ele>149.62231445312</ele>
        <time>2019-01-09T11:20:41Z</time>
      </trkpt>
      <trkpt lat="37.21204" lon="-8.69337">
        <ele>147.21899414062</ele>
        <time>2019-01-09T11:20:20Z</time>
      </trkpt>
      <trkpt lat="37.21196" lon="-8.69334">
        <ele>145.29638671875</ele>
        <time>2019-01-09T11:20:14Z</time>
      </trkpt>
      <trkpt lat="37.21175" lon="-8.69327">
        <ele>142.41247558594</ele>
        <time>2019-01-09T11:20:00Z</time>
      </trkpt>
      <trkpt lat="37.21173" lon="-8.69326">
        <ele>142.89306640625</ele>
        <time>2019-01-09T11:19:59Z</time>
      </trkpt>
      <trkpt lat="37.21158" lon="-8.69321">
        <ele>139.52844238281</ele>
        <time>2019-01-09T11:19:50Z</time>
      </trkpt>
      <trkpt lat="37.21148" lon="-8.69316">
        <ele>137.60583496094</ele>
        <time>2019-01-09T11:19:45Z</time>
      </trkpt>
      <trkpt lat="37.21132" lon="-8.69305">
        <ele>135.20251464844</ele>
        <time>2019-01-09T11:19:39Z</time>
      </trkpt>
      <trkpt lat="37.21123" lon="-8.69298">
        <ele>135.20251464844</ele>
        <time>2019-01-09T11:19:37Z</time>
      </trkpt>
      <trkpt lat="37.21112" lon="-8.69277">
        <ele>137.60583496094</ele>
        <time>2019-01-09T11:19:34Z</time>
      </trkpt>
      <trkpt lat="37.21109" lon="-8.69265">
        <ele>138.56726074219</ele>
        <time>2019-01-09T11:19:32Z</time>
      </trkpt>
      <trkpt lat="37.21098" lon="-8.6925">
        <ele>139.52844238281</ele>
        <time>2019-01-09T11:19:28Z</time>
      </trkpt>
      <trkpt lat="37.21071" lon="-8.69242">
        <ele>140.97045898438</ele>
        <time>2019-01-09T11:19:22Z</time>
      </trkpt>
      <trkpt lat="37.2106" lon="-8.69232">
        <ele>141.93176269531</ele>
        <time>2019-01-09T11:19:19Z</time>
      </trkpt>
      <trkpt lat="37.21081" lon="-8.69185">
        <ele>145.77709960938</ele>
        <time>2019-01-09T11:19:09Z</time>
      </trkpt>
      <trkpt lat="37.21097" lon="-8.69142">
        <ele>149.1416015625</ele>
        <time>2019-01-09T11:19:01Z</time>
      </trkpt>
      <trkpt lat="37.21091" lon="-8.69125">
        <ele>150.58361816406</ele>
        <time>2019-01-09T11:18:58Z</time>
      </trkpt>
      <trkpt lat="37.21067" lon="-8.69077">
        <ele>153.94836425781</ele>
        <time>2019-01-09T11:18:49Z</time>
      </trkpt>
      <trkpt lat="37.21064" lon="-8.69069">
        <ele>155.87097167969</ele>
        <time>2019-01-09T11:18:47Z</time>
      </trkpt>
      <trkpt lat="37.21063" lon="-8.69064">
        <ele>156.3515625</ele>
        <time>2019-01-09T11:18:46Z</time>
      </trkpt>
      <trkpt lat="37.21048" lon="-8.6904">
        <ele>161.158203125</ele>
        <time>2019-01-09T11:18:40Z</time>
      </trkpt>
      <trkpt lat="37.21039" lon="-8.69031">
        <ele>163.08081054688</ele>
        <time>2019-01-09T11:18:37Z</time>
      </trkpt>
      <trkpt lat="37.21029" lon="-8.69026">
        <ele>164.52270507812</ele>
        <time>2019-01-09T11:18:34Z</time>
      </trkpt>
      <trkpt lat="37.20969" lon="-8.69085">
        <ele>165.00341796875</ele>
        <time>2019-06-25T10:09:13Z</time>
      </trkpt>
      <trkpt lat="37.20963" lon="-8.69118">
        <ele>165.00341796875</ele>
        <time>2019-06-25T10:09:28Z</time>
      </trkpt>
      <trkpt lat="37.20962" lon="-8.69118">
        <ele>164.04211425781</ele>
        <time>2019-06-25T10:09:45Z</time>
      </trkpt>
      <trkpt lat="37.20961" lon="-8.69115">
        <ele>165.96472167969</ele>
        <time>2019-06-25T10:11:00Z</time>
      </trkpt>
      <trkpt lat="37.20961" lon="-8.69116">
        <ele>165.48413085938</ele>
        <time>2019-06-25T10:11:08Z</time>
      </trkpt>
      <trkpt lat="37.20932" lon="-8.69141">
        <ele>164.52270507812</ele>
        <time>2019-06-25T10:11:19Z</time>
      </trkpt>
      <trkpt lat="37.20922" lon="-8.69146">
        <ele>164.04211425781</ele>
        <time>2019-06-25T10:11:21Z</time>
      </trkpt>
      <trkpt lat="37.20892" lon="-8.69147">
        <ele>161.63891601562</ele>
        <time>2019-06-25T10:11:26Z</time>
      </trkpt>
      <trkpt lat="37.20854" lon="-8.6917">
        <ele>158.27416992188</ele>
        <time>2019-06-25T10:11:32Z</time>
      </trkpt>
      <trkpt lat="37.20852" lon="-8.69179">
        <ele>157.79357910156</ele>
        <time>2019-06-25T10:11:33Z</time>
      </trkpt>
      <trkpt lat="37.20829" lon="-8.69205">
        <ele>157.79357910156</ele>
        <time>2019-06-25T10:11:39Z</time>
      </trkpt>
      <trkpt lat="37.20794" lon="-8.692">
        <ele>154.90954589844</ele>
        <time>2019-06-25T10:11:45Z</time>
      </trkpt>
      <trkpt lat="37.20778" lon="-8.69197">
        <ele>152.50634765625</ele>
        <time>2019-06-25T10:11:47Z</time>
      </trkpt>
      <trkpt lat="37.20745" lon="-8.69197">
        <ele>155.39025878906</ele>
        <time>2019-06-25T10:11:54Z</time>
      </trkpt>
      <trkpt lat="37.20701" lon="-8.69209">
        <ele>157.79357910156</ele>
        <time>2019-06-25T10:12:13Z</time>
      </trkpt>
      <trkpt lat="37.20665" lon="-8.69243">
        <ele>158.75476074219</ele>
        <time>2019-06-25T10:12:31Z</time>
      </trkpt>
      <trkpt lat="37.20617" lon="-8.69241">
        <ele>157.79357910156</ele>
        <time>2019-06-25T10:12:44Z</time>
      </trkpt>
      <trkpt lat="37.20612" lon="-8.69246">
        <ele>157.79357910156</ele>
        <time>2019-06-25T10:12:45Z</time>
      </trkpt>
      <trkpt lat="37.20602" lon="-8.69257">
        <ele>157.31286621094</ele>
        <time>2019-06-25T10:12:48Z</time>
      </trkpt>
      <trkpt lat="37.20571" lon="-8.69269">
        <ele>156.3515625</ele>
        <time>2019-06-25T10:12:53Z</time>
      </trkpt>
      <trkpt lat="37.20558" lon="-8.69265">
        <ele>154.90954589844</ele>
        <time>2019-06-25T10:12:55Z</time>
      </trkpt>
      <trkpt lat="37.20534" lon="-8.69275">
        <ele>149.62231445312</ele>
        <time>2019-06-25T10:12:59Z</time>
      </trkpt>
      <trkpt lat="37.2053" lon="-8.69276">
        <ele>149.62231445312</ele>
        <time>2019-06-25T10:13:00Z</time>
      </trkpt>
      <trkpt lat="37.2051" lon="-8.69283">
        <ele>147.21899414062</ele>
        <time>2019-06-25T10:13:04Z</time>
      </trkpt>
      <trkpt lat="37.205" lon="-8.69297">
        <ele>143.85437011719</ele>
        <time>2019-06-25T10:13:08Z</time>
      </trkpt>
      <trkpt lat="37.20495" lon="-8.69309">
        <ele>141.93176269531</ele>
        <time>2019-06-25T10:13:10Z</time>
      </trkpt>
      <trkpt lat="37.2048" lon="-8.69329">
        <ele>139.0478515625</ele>
        <time>2019-06-25T10:13:14Z</time>
      </trkpt>
      <trkpt lat="37.20466" lon="-8.69333">
        <ele>136.16394042969</ele>
        <time>2019-06-25T10:13:17Z</time>
      </trkpt>
      <trkpt lat="37.20461" lon="-8.69332">
        <ele>136.16394042969</ele>
        <time>2019-06-25T10:13:18Z</time>
      </trkpt>
      <trkpt lat="37.20448" lon="-8.6933">
        <ele>134.72192382812</ele>
        <time>2019-06-25T10:13:20Z</time>
      </trkpt>
      <trkpt lat="37.20423" lon="-8.6933">
        <ele>130.87670898438</ele>
        <time>2019-06-25T10:13:24Z</time>
      </trkpt>
      <trkpt lat="37.20411" lon="-8.69344">
        <ele>128.47338867188</ele>
        <time>2019-06-25T10:13:27Z</time>
      </trkpt>
      <trkpt lat="37.20382" lon="-8.69364">
        <ele>123.66674804688</ele>
        <time>2019-06-25T10:13:33Z</time>
      </trkpt>
      <trkpt lat="37.20357" lon="-8.69371">
        <ele>119.3408203125</ele>
        <time>2019-06-25T10:13:37Z</time>
      </trkpt>
      <trkpt lat="37.20337" lon="-8.69395">
        <ele>115.01489257812</ele>
        <time>2019-06-25T10:13:42Z</time>
      </trkpt>
      <trkpt lat="37.20323" lon="-8.69421">
        <ele>112.61157226562</ele>
        <time>2019-06-25T10:13:46Z</time>
      </trkpt>
      <trkpt lat="37.20331" lon="-8.69445">
        <ele>108.28564453125</ele>
        <time>2019-06-25T10:13:51Z</time>
      </trkpt>
      <trkpt lat="37.20335" lon="-8.69449">
        <ele>108.28564453125</ele>
        <time>2019-06-25T10:13:52Z</time>
      </trkpt>
      <trkpt lat="37.20348" lon="-8.69456">
        <ele>106.84362792969</ele>
        <time>2019-06-25T10:13:54Z</time>
      </trkpt>
      <trkpt lat="37.20382" lon="-8.69463">
        <ele>102.99829101562</ele>
        <time>2019-06-25T10:13:59Z</time>
      </trkpt>
      <trkpt lat="37.20406" lon="-8.69465">
        <ele>99.6337890625</ele>
        <time>2019-06-25T10:14:03Z</time>
      </trkpt>
      <trkpt lat="37.20425" lon="-8.69477">
        <ele>97.23046875</ele>
        <time>2019-06-25T10:14:07Z</time>
      </trkpt>
      <trkpt lat="37.20444" lon="-8.69529">
        <ele>94.8271484375</ele>
        <time>2019-06-25T10:14:15Z</time>
      </trkpt>
      <trkpt lat="37.20427" lon="-8.69552">
        <ele>94.346557617188</ele>
        <time>2019-06-25T10:14:19Z</time>
      </trkpt>
      <trkpt lat="37.20412" lon="-8.69569">
        <ele>94.346557617188</ele>
        <time>2019-06-25T10:14:23Z</time>
      </trkpt>
      <trkpt lat="37.20385" lon="-8.69587">
        <ele>94.8271484375</ele>
        <time>2019-06-25T10:14:30Z</time>
      </trkpt>
      <trkpt lat="37.20373" lon="-8.69591">
        <ele>94.8271484375</ele>
        <time>2019-06-25T10:14:33Z</time>
      </trkpt>
      <trkpt lat="37.20351" lon="-8.69617">
        <ele>93.865844726562</ele>
        <time>2019-06-25T10:14:39Z</time>
      </trkpt>
      <trkpt lat="37.20325" lon="-8.69643">
        <ele>95.788452148438</ele>
        <time>2019-06-25T10:14:50Z</time>
      </trkpt>
      <trkpt lat="37.2032" lon="-8.69647">
        <ele>95.788452148438</ele>
        <time>2019-06-25T10:14:52Z</time>
      </trkpt>
      <trkpt lat="37.2032" lon="-8.69664">
        <ele>95.788452148438</ele>
        <time>2019-06-25T10:14:59Z</time>
      </trkpt>
      <trkpt lat="37.20321" lon="-8.69668">
        <ele>95.307739257812</ele>
        <time>2019-06-25T10:15:00Z</time>
      </trkpt>
      <trkpt lat="37.20339" lon="-8.69731">
        <ele>96.749877929688</ele>
        <time>2019-06-25T10:15:15Z</time>
      </trkpt>
      <trkpt lat="37.20339" lon="-8.69763">
        <ele>97.23046875</ele>
        <time>2019-06-25T10:15:22Z</time>
      </trkpt>
      <trkpt lat="37.20337" lon="-8.6979">
        <ele>97.711181640625</ele>
        <time>2019-06-25T10:15:27Z</time>
      </trkpt>
      <trkpt lat="37.20325" lon="-8.69832">
        <ele>98.19189453125</ele>
        <time>2019-06-25T10:15:39Z</time>
      </trkpt>
      <trkpt lat="37.20297" lon="-8.69825">
        <ele>97.711181640625</ele>
        <time>2019-06-25T10:15:48Z</time>
      </trkpt>
      <trkpt lat="37.20244" lon="-8.69787">
        <ele>97.23046875</ele>
        <time>2019-06-25T10:16:05Z</time>
      </trkpt>
      <trkpt lat="37.20221" lon="-8.69758">
        <ele>96.749877929688</ele>
        <time>2019-06-25T10:16:14Z</time>
      </trkpt>
      <trkpt lat="37.20218" lon="-8.69757">
        <ele>95.788452148438</ele>
        <time>2019-06-25T10:16:15Z</time>
      </trkpt>
      <trkpt lat="37.20212" lon="-8.69755">
        <ele>95.307739257812</ele>
        <time>2019-06-25T10:16:17Z</time>
      </trkpt>
      <trkpt lat="37.20213" lon="-8.69764">
        <ele>94.346557617188</ele>
        <time>2019-06-25T10:16:20Z</time>
      </trkpt>
      <trkpt lat="37.20206" lon="-8.69842">
        <ele>95.307739257812</ele>
        <time>2019-06-25T10:16:36Z</time>
      </trkpt>
      <trkpt lat="37.20166" lon="-8.69868">
        <ele>95.307739257812</ele>
        <time>2019-06-25T10:16:49Z</time>
      </trkpt>
      <trkpt lat="37.20158" lon="-8.69871">
        <ele>95.788452148438</ele>
        <time>2019-06-25T10:16:52Z</time>
      </trkpt>
      <trkpt lat="37.20122" lon="-8.69855">
        <ele>95.788452148438</ele>
        <time>2019-06-25T10:17:06Z</time>
      </trkpt>
      <trkpt lat="37.2011" lon="-8.69844">
        <ele>99.153076171875</ele>
        <time>2019-06-25T10:17:13Z</time>
      </trkpt>
      <trkpt lat="37.2009" lon="-8.69828">
        <ele>102.037109375</ele>
        <time>2019-06-25T10:17:26Z</time>
      </trkpt>
      <trkpt lat="37.20062" lon="-8.69806">
        <ele>105.40173339844</ele>
        <time>2019-06-25T10:17:46Z</time>
      </trkpt>
      <trkpt lat="37.2006" lon="-8.69805">
        <ele>105.88244628906</ele>
        <time>2019-06-25T10:17:47Z</time>
      </trkpt>
      <trkpt lat="37.20046" lon="-8.69793">
        <ele>108.76623535156</ele>
        <time>2019-06-25T10:17:58Z</time>
      </trkpt>
      <trkpt lat="37.20016" lon="-8.69785">
        <ele>112.13098144531</ele>
        <time>2019-06-25T10:18:17Z</time>
      </trkpt>
      <trkpt lat="37.20004" lon="-8.69816">
        <ele>114.5341796875</ele>
        <time>2019-06-25T10:18:32Z</time>
      </trkpt>
      <trkpt lat="37.20021" lon="-8.69849">
        <ele>115.49560546875</ele>
        <time>2019-06-25T10:18:46Z</time>
      </trkpt>
      <trkpt lat="37.20064" lon="-8.69909">
        <ele>118.37939453125</ele>
        <time>2019-06-25T10:19:12Z</time>
      </trkpt>
    </trkseg>
  </trk>
</gpx>